Grande-Vallee, Canada
Current Conditions -  °F | °C
As of 4:00 PM on Tuesday 21 Oct 2014 (Local Time) from CYGP Reporting Station
Broken Clouds Broken Clouds  
Wind Chill: 40°   Ceiling: 3000
Heat Index: 45°   Visibility: 15mi
Dew Point: 34°   Wind: 9mph
Humidity: 66%   Direction: 80°E
Pressure: 30.15"   Gusts: NA
Location:  49.22°N, 65.13°W
Report Text: CYGP 212000Z 08008KT 15SM BKN030 07/01 A3015 RMK SC6 SLP210
Loading
Personal Weather Stations






























Interactive Weather Map
Tropical Storm Tracking
New forecast layout! Learn more

10-Day Weather Forecast

Advertisements
Track Severe Weather on mobile